Time;durP1;ratioP1;P1;durP2;ratioP2;P2;SDS_P1;SDS_P2;PMS_P1;PMS_P2;Temp;Humidity;BMP_temperature;BMP_pressure;BME280_temperature;BME280_humidity;BME280_pressure;Samples;Min_cycle;Max_cycle;Signal;HPM_P1;HPM_P2
2023/09/30 00:02:45;;;;;;;13.10;8.90;;;;;;;16.97;63.46;100656.89;109030;277;38565;-72
2023/09/30 00:05:20;;;;;;;10.90;8.50;;;;;;;16.96;63.59;100654.31;108975;277;38627;-71
2023/09/30 00:07:58;;;;;;;15.90;8.90;;;;;;;16.95;63.53;100654.17;108916;277;38278;-72
2023/09/30 00:10:49;;;;;;;14.20;8.90;;;;;;;16.99;63.72;100653.42;108918;277;39334;-72
2023/09/30 00:13:30;;;;;;;12.40;8.40;;;;;;;17.02;63.72;100653.41;108974;277;38238;-74
2023/09/30 00:16:06;;;;;;;11.40;8.30;;;;;;;17.06;63.65;100652.32;108946;277;38191;-72
2023/09/30 00:18:40;;;;;;;12.50;8.30;;;;;;;17.08;63.76;100652.04;108902;277;39707;-72
2023/09/30 00:21:15;;;;;;;14.50;9.10;;;;;;;17.10;63.57;100652.94;108911;277;38965;-72
2023/09/30 00:23:49;;;;;;;14.10;8.50;;;;;;;17.12;63.80;100656.89;108869;277;38251;-72
2023/09/30 00:26:24;;;;;;;10.40;8.90;;;;;;;17.12;63.55;100653.52;108904;277;39333;-71
2023/09/30 00:29:04;;;;;;;9.80;8.50;;;;;;;17.12;63.61;100647.02;108966;277;39068;-71
2023/09/30 00:31:41;;;;;;;11.40;9.10;;;;;;;17.10;63.66;100649.43;108931;277;38789;-73
2023/09/30 00:34:17;;;;;;;20.30;8.70;;;;;;;17.10;63.62;100651.56;108951;277;39348;-72
2023/09/30 00:36:52;;;;;;;11.70;8.20;;;;;;;17.09;63.59;100642.61;108921;277;39516;-72
2023/09/30 00:39:29;;;;;;;12.10;8.10;;;;;;;17.11;63.81;100643.57;108906;277;38342;-72
2023/09/30 00:42:04;;;;;;;11.50;9.00;;;;;;;17.13;63.66;100646.62;108904;277;40730;-72
2023/09/30 00:44:39;;;;;;;15.30;9.00;;;;;;;17.14;63.77;100646.35;108905;277;38374;-71
2023/09/30 00:47:14;;;;;;;11.40;9.20;;;;;;;17.17;63.73;100647.44;108955;277;39445;-72
2023/09/30 00:49:54;;;;;;;11.10;8.80;;;;;;;17.17;63.82;100645.11;108949;277;39779;-74
2023/09/30 00:52:35;;;;;;;11.00;9.20;;;;;;;17.17;63.62;100643.50;108860;277;175778;-72
2023/09/30 00:55:12;;;;;;;11.80;9.00;;;;;;;17.16;63.88;100639.52;108983;277;38857;-72
2023/09/30 00:57:46;;;;;;;13.40;9.10;;;;;;;17.15;64.17;100642.77;108992;277;39956;-72
2023/09/30 01:00:25;;;;;;;10.90;9.10;;;;;;;17.14;64.51;100640.91;109006;277;39370;-72
2023/09/30 01:03:03;;;;;;;12.90;8.90;;;;;;;17.13;64.90;100640.61;108971;277;38193;-71
2023/09/30 01:05:45;;;;;;;;;;;;;;;17.13;65.52;100646.02;109035;277;38315;-71
2023/09/30 01:08:43;;;;;;;12.80;9.80;;;;;;;17.10;66.18;100654.88;108989;277;38770;-71
2023/09/30 01:11:20;;;;;;;11.10;9.60;;;;;;;17.10;66.51;100657.16;108968;277;38464;-75
2023/09/30 01:13:55;;;;;;;11.80;9.10;;;;;;;17.10;67.15;100665.66;108963;277;38577;-72
2023/09/30 01:16:29;;;;;;;12.80;9.50;;;;;;;17.07;67.48;100660.15;108957;277;38502;-71
2023/09/30 01:19:04;;;;;;;11.20;8.90;;;;;;;17.04;67.65;100659.29;108933;277;38302;-73
2023/09/30 01:21:41;;;;;;;13.20;9.10;;;;;;;17.02;67.90;100649.54;108979;276;39265;-75
2023/09/30 01:24:16;;;;;;;11.90;9.60;;;;;;;17.00;68.09;100645.61;108967;276;38602;-73
2023/09/30 01:26:52;;;;;;;11.80;9.40;;;;;;;17.01;68.42;100649.24;108920;277;38598;-72
2023/09/30 01:29:28;;;;;;;11.20;9.70;;;;;;;17.01;68.64;100646.04;108860;276;174942;-72
2023/09/30 01:32:09;;;;;;;12.60;9.40;;;;;;;16.98;68.92;100645.51;109010;276;38971;-71
2023/09/30 01:34:57;;;;;;;10.80;8.70;;;;;;;16.94;69.05;100646.13;108973;277;38179;-74
2023/09/30 01:37:41;;;;;;;11.70;9.70;;;;;;;16.93;69.27;100644.29;109060;276;40141;-71
2023/09/30 01:40:29;;;;;;;13.30;9.70;;;;;;;16.91;69.60;100637.52;108892;277;39530;-72
2023/09/30 01:43:13;;;;;;;15.20;10.10;;;;;;;16.91;69.46;100632.92;109086;277;39292;-71
2023/09/30 01:45:48;;;;;;;12.90;9.70;;;;;;;16.90;69.59;100632.80;109048;277;38267;-71
2023/09/30 01:48:23;;;;;;;13.70;9.10;;;;;;;16.92;69.54;100631.85;109086;276;38613;-73
2023/09/30 01:51:04;;;;;;;10.70;8.80;;;;;;;16.91;69.61;100628.70;109025;277;39617;-71
2023/09/30 01:53:44;;;;;;;10.70;9.40;;;;;;;16.91;69.72;100632.05;109079;277;38891;-71
2023/09/30 01:56:21;;;;;;;12.30;9.20;;;;;;;16.89;69.99;100632.18;109021;277;38532;-74
2023/09/30 01:59:02;;;;;;;12.00;10.00;;;;;;;16.86;70.42;100629.85;108976;277;39405;-73
2023/09/30 02:01:37;;;;;;;12.50;10.10;;;;;;;16.85;70.64;100626.05;108989;276;38238;-71
2023/09/30 02:04:11;;;;;;;13.30;9.70;;;;;;;16.83;70.70;100623.00;108958;277;38299;-71
2023/09/30 02:06:44;;;;;;;10.90;8.80;;;;;;;16.84;70.72;100627.40;109050;277;39373;-73
2023/09/30 02:09:28;;;;;;;10.50;8.90;;;;;;;16.83;70.77;100626.36;108980;276;38415;-73
2023/09/30 02:12:07;;;;;;;12.30;9.20;;;;;;;16.85;70.86;100625.58;108978;277;38937;-74
2023/09/30 02:14:42;;;;;;;18.50;10.00;;;;;;;16.86;70.72;100620.05;108986;276;38160;-71
2023/09/30 02:17:16;;;;;;;10.50;9.40;;;;;;;16.85;70.66;100620.12;108954;277;38180;-75
2023/09/30 02:19:50;;;;;;;14.20;9.10;;;;;;;16.84;70.72;100619.27;108947;277;38301;-73
2023/09/30 02:22:28;;;;;;;11.20;8.90;;;;;;;16.85;70.89;100622.93;109037;276;38285;-71
2023/09/30 02:25:20;;;;;;;12.30;9.40;;;;;;;16.87;71.11;100618.03;108945;277;38435;-72
2023/09/30 02:28:08;;;;;;;11.00;9.30;;;;;;;16.86;71.21;100621.61;109062;277;38164;-71
2023/09/30 02:30:45;;;;;;;12.30;9.80;;;;;;;16.84;71.59;100622.26;109016;277;38851;-73
2023/09/30 02:33:25;;;;;;;13.40;9.20;;;;;;;16.84;71.73;100624.76;108995;277;38570;-73
2023/09/30 02:36:01;;;;;;;11.80;8.50;;;;;;;16.84;71.82;100623.66;108945;277;39436;-71
2023/09/30 02:38:41;;;;;;;13.70;9.50;;;;;;;16.87;71.81;100620.52;108997;277;38482;-71
2023/09/30 02:41:16;;;;;;;11.30;9.60;;;;;;;16.88;71.65;100626.57;108914;277;175192;-72
2023/09/30 02:43:54;;;;;;;12.30;8.80;;;;;;;16.90;71.49;100626.84;108991;276;38246;-72
2023/09/30 02:46:29;;;;;;;12.70;9.50;;;;;;;16.93;71.15;100627.88;109031;276;38466;-71
2023/09/30 02:49:05;;;;;;;13.40;10.00;;;;;;;16.92;70.90;100623.91;109012;277;38281;-71
2023/09/30 02:51:39;;;;;;;10.20;8.80;;;;;;;16.89;70.74;100624.94;108964;276;38973;-71
2023/09/30 02:54:15;;;;;;;11.30;8.20;;;;;;;16.90;70.64;100627.55;108959;276;39514;-71
2023/09/30 02:56:50;;;;;;;16.90;9.40;;;;;;;16.90;70.61;100624.36;108452;277;693008;-72
2023/09/30 02:59:24;;;;;;;12.00;9.10;;;;;;;16.88;70.74;100623.97;109037;276;38257;-73
2023/09/30 03:01:59;;;;;;;11.40;9.60;;;;;;;16.88;71.29;100620.96;108977;276;38886;-72
2023/09/30 03:04:33;;;;;;;16.30;9.80;;;;;;;16.88;71.60;100621.85;108978;277;38294;-72
2023/09/30 03:07:07;;;;;;;10.90;8.80;;;;;;;16.88;71.68;100619.55;108961;276;38175;-72
2023/09/30 03:09:44;;;;;;;11.90;8.80;;;;;;;16.89;71.61;100619.16;108966;276;39861;-71
2023/09/30 03:12:19;;;;;;;13.50;9.40;;;;;;;16.88;71.90;100617.10;109026;276;38150;-71
2023/09/30 03:14:56;;;;;;;12.90;9.70;;;;;;;16.87;72.00;100616.22;109054;276;38173;-71
2023/09/30 03:17:39;;;;;;;14.20;10.20;;;;;;;16.87;72.47;100613.98;109021;276;38267;-71
2023/09/30 03:20:21;;;;;;;15.10;9.30;;;;;;;16.83;72.63;100611.19;109030;276;38270;-73
2023/09/30 03:22:57;;;;;;;11.80;8.90;;;;;;;16.82;73.07;100604.95;108991;276;38275;-73
2023/09/30 03:25:34;;;;;;;11.20;9.30;;;;;;;16.79;73.35;100608.48;108985;276;38457;-72
2023/09/30 03:28:09;;;;;;;12.70;9.60;;;;;;;16.77;73.91;100611.71;109018;277;38179;-72
2023/09/30 03:30:46;;;;;;;14.80;10.40;;;;;;;16.75;73.90;100606.95;108969;276;38272;-74
2023/09/30 03:33:20;;;;;;;12.30;9.30;;;;;;;16.74;74.31;100603.11;108992;276;38383;-73
2023/09/30 03:35:58;;;;;;;12.00;9.00;;;;;;;16.70;74.49;100594.57;108951;277;38243;-73
2023/09/30 03:38:34;;;;;;;11.30;8.60;;;;;;;16.64;74.77;100596.48;108940;277;40191;-70
2023/09/30 03:41:08;;;;;;;12.10;9.30;;;;;;;16.64;75.28;100597.33;108989;277;38748;-72
2023/09/30 03:43:47;;;;;;;13.90;10.30;;;;;;;16.63;75.08;100602.85;108913;277;38440;-72
2023/09/30 03:46:25;;;;;;;15.50;9.70;;;;;;;16.60;75.26;100603.05;109009;277;38734;-73
2023/09/30 03:49:00;;;;;;;12.40;9.10;;;;;;;16.57;75.66;100598.48;108966;277;39384;-72
2023/09/30 03:51:37;;;;;;;13.10;9.30;;;;;;;16.56;75.81;100598.73;108910;277;174477;-72
2023/09/30 03:54:11;;;;;;;12.10;9.70;;;;;;;16.54;76.26;100602.20;108913;276;174965;-71
2023/09/30 03:56:56;;;;;;;11.90;9.70;;;;;;;16.53;76.31;100606.83;109001;277;38694;-73
2023/09/30 03:59:35;;;;;;;11.70;9.80;;;;;;;16.52;76.39;100607.38;109028;277;39107;-73
2023/09/30 04:02:16;;;;;;;13.80;9.50;;;;;;;16.49;76.16;100609.47;109046;277;38839;-71
2023/09/30 04:04:59;;;;;;;12.10;9.40;;;;;;;16.45;75.92;100608.84;108365;277;897553;-72
2023/09/30 04:07:36;;;;;;;12.60;9.10;;;;;;;16.44;76.31;100608.58;108982;277;38764;-71
2023/09/30 04:10:12;;;;;;;13.60;9.60;;;;;;;16.46;76.40;100606.17;108998;277;38676;-75
2023/09/30 04:12:48;;;;;;;13.20;9.70;;;;;;;16.47;76.39;100603.80;108951;277;38286;-74
2023/09/30 04:15:28;;;;;;;13.10;9.90;;;;;;;16.48;76.28;100604.98;109000;277;38273;-72
2023/09/30 04:18:05;;;;;;;13.00;9.20;;;;;;;16.46;76.44;100601.41;109008;277;38173;-71
2023/09/30 04:20:44;;;;;;;13.60;9.40;;;;;;;16.45;76.45;100603.21;108392;276;896882;-73
2023/09/30 04:23:28;;;;;;;13.30;9.80;;;;;;;16.47;76.28;100605.22;108895;277;38275;-72
2023/09/30 04:26:05;;;;;;;13.30;9.30;;;;;;;16.48;76.13;100604.77;108962;277;39365;-73
2023/09/30 04:28:38;;;;;;;10.90;9.50;;;;;;;16.49;75.97;100601.94;108958;277;38818;-72
2023/09/30 04:31:17;;;;;;;13.70;9.00;;;;;;;16.48;75.90;100602.30;108938;277;38165;-72
2023/09/30 04:33:52;;;;;;;10.80;8.50;;;;;;;16.49;75.95;100602.63;108966;277;38629;-72
2023/09/30 04:36:26;;;;;;;14.40;9.30;;;;;;;16.50;76.03;100602.23;108973;277;39333;-73
2023/09/30 04:39:10;;;;;;;11.10;9.00;;;;;;;16.52;75.86;100599.10;108992;277;38161;-73
2023/09/30 04:41:51;;;;;;;11.80;9.40;;;;;;;16.55;75.78;100595.80;108979;277;38506;-74
2023/09/30 04:44:29;;;;;;;10.30;9.20;;;;;;;16.57;75.59;100596.72;109006;277;39825;-72
2023/09/30 04:47:13;;;;;;;13.00;8.10;;;;;;;16.59;75.62;100597.33;108846;277;174989;-73
2023/09/30 04:49:48;;;;;;;15.70;8.90;;;;;;;16.60;75.58;100597.95;108997;277;38211;-72
2023/09/30 04:52:27;;;;;;;10.50;8.90;;;;;;;16.62;75.75;100598.21;109017;277;39307;-72
2023/09/30 04:55:15;;;;;;;12.30;9.50;;;;;;;16.63;75.75;100595.31;109039;277;38327;-74
2023/09/30 04:57:54;;;;;;;11.40;9.30;;;;;;;16.59;76.01;100591.30;109023;277;38749;-71
2023/09/30 05:00:33;;;;;;;11.30;8.60;;;;;;;16.59;76.16;100594.30;109037;277;39338;-72
2023/09/30 05:03:12;;;;;;;12.70;8.70;;;;;;;16.61;76.32;100593.64;108977;277;38439;-72
2023/09/30 05:05:53;;;;;;;12.60;9.20;;;;;;;16.62;76.58;100590.23;109046;277;40376;-73
2023/09/30 05:08:31;;;;;;;11.20;9.70;;;;;;;16.62;76.38;100591.30;108964;277;38609;-71
2023/09/30 05:11:10;;;;;;;13.20;9.90;;;;;;;16.61;76.32;100594.18;108977;277;38747;-70
2023/09/30 05:13:48;;;;;;;12.60;8.50;;;;;;;16.62;76.32;100597.80;108979;277;38144;-71
2023/09/30 05:16:26;;;;;;;9.90;8.90;;;;;;;16.66;76.14;100597.95;108984;277;39357;-77
2023/09/30 05:19:01;;;;;;;10.80;9.10;;;;;;;16.67;76.18;100601.55;108961;276;38235;-71
2023/09/30 05:21:37;;;;;;;11.80;9.10;;;;;;;16.69;76.28;100603.38;108987;277;38253;-72
2023/09/30 05:24:13;;;;;;;10.70;8.60;;;;;;;16.71;76.26;100602.44;109008;276;39461;-72
2023/09/30 05:26:48;;;;;;;13.70;8.40;;;;;;;16.73;76.26;100604.92;109008;277;38708;-73
2023/09/30 05:29:22;;;;;;;8.90;8.10;;;;;;;16.74;76.33;100606.82;109004;276;38147;-71
2023/09/30 05:31:56;;;;;;;11.00;9.30;;;;;;;16.75;76.23;100611.51;108956;277;39720;-77
2023/09/30 05:34:30;;;;;;;14.70;8.80;;;;;;;16.75;76.55;100611.70;108922;277;177291;-74
2023/09/30 05:37:07;;;;;;;11.00;8.50;;;;;;;16.73;76.41;100609.67;108994;277;39341;-72
2023/09/30 05:39:44;;;;;;;12.00;8.10;;;;;;;16.77;76.32;100619.35;109037;276;38691;-74
2023/09/30 05:42:20;;;;;;;11.50;8.60;;;;;;;16.79;76.39;100629.77;109020;277;40606;-72
2023/09/30 05:44:56;;;;;;;10.10;8.20;;;;;;;16.81;76.45;100630.73;108968;277;39775;-71
2023/09/30 05:47:34;;;;;;;12.60;8.90;;;;;;;16.82;76.54;100632.43;109032;277;38164;-72
2023/09/30 05:50:14;;;;;;;10.60;8.30;;;;;;;16.81;76.85;100642.88;108913;277;39405;-73
2023/09/30 05:52:50;;;;;;;12.10;8.30;;;;;;;16.81;77.28;100645.50;108997;277;38318;-72
2023/09/30 05:55:25;;;;;;;14.10;8.50;;;;;;;16.83;77.40;100648.02;108993;277;38613;-72
2023/09/30 05:58:02;;;;;;;11.80;8.60;;;;;;;16.87;77.67;100649.91;108957;277;38279;-73
2023/09/30 06:00:37;;;;;;;10.20;8.30;;;;;;;16.89;77.62;100649.95;109008;276;38838;-71
2023/09/30 06:03:15;;;;;;;10.90;8.00;;;;;;;16.89;77.81;100648.41;108991;277;38267;-72
2023/09/30 06:05:50;;;;;;;10.80;7.70;;;;;;;16.90;78.00;100656.62;109015;277;38259;-71
2023/09/30 06:08:24;;;;;;;10.70;7.80;;;;;;;16.92;78.18;100662.29;108999;277;39569;-72
2023/09/30 06:10:59;;;;;;;9.50;7.80;;;;;;;16.94;78.55;100664.27;108891;277;38153;-72
2023/09/30 06:13:33;;;;;;;11.10;8.40;;;;;;;16.94;78.48;100668.16;108956;269;38340;-71
2023/09/30 06:16:11;;;;;;;11.60;7.80;;;;;;;16.93;78.70;100669.81;108973;276;39299;-71
2023/09/30 06:18:46;;;;;;;10.30;7.80;;;;;;;16.95;78.83;100671.29;109041;277;38285;-71
2023/09/30 06:21:20;;;;;;;8.30;7.50;;;;;;;16.96;79.00;100674.40;109021;277;39448;-72
2023/09/30 06:23:55;;;;;;;11.00;8.00;;;;;;;16.99;79.37;100670.34;109061;277;39451;-72
2023/09/30 06:26:30;;;;;;;10.00;8.40;;;;;;;17.00;79.49;100669.05;108878;277;177309;-73
2023/09/30 06:29:06;;;;;;;9.30;7.90;;;;;;;17.01;79.86;100669.16;109097;276;38217;-73
2023/09/30 06:31:45;;;;;;;10.70;7.80;;;;;;;17.03;80.37;100666.95;109059;276;38181;-70
2023/09/30 06:34:26;;;;;;;10.70;7.60;;;;;;;17.01;80.53;100666.86;108935;276;174988;-71
2023/09/30 06:37:06;;;;;;;10.60;8.40;;;;;;;17.04;80.74;100667.06;109066;277;40344;-72
2023/09/30 06:39:41;;;;;;;12.10;8.40;;;;;;;17.07;81.35;100674.11;109066;276;39398;-72
2023/09/30 06:42:16;;;;;;;10.60;8.00;;;;;;;17.10;81.58;100679.22;109017;277;39317;-71
2023/09/30 06:44:54;;;;;;;8.50;7.50;;;;;;;17.12;81.63;100681.92;108894;278;38220;-72
2023/09/30 06:47:28;;;;;;;13.00;7.50;;;;;;;17.16;81.93;100685.36;108912;278;38668;-75
2023/09/30 06:50:07;;;;;;;8.90;7.80;;;;;;;17.18;81.88;100686.49;108897;278;38176;-71
2023/09/30 06:52:45;;;;;;;13.50;7.90;;;;;;;17.19;82.15;100688.85;108895;278;39783;-72
2023/09/30 06:55:22;;;;;;;12.20;9.20;;;;;;;17.20;82.23;100691.84;108850;278;39921;-72
2023/09/30 06:57:57;;;;;;;8.90;7.80;;;;;;;17.22;82.29;100691.02;108894;278;38796;-71
2023/09/30 07:00:31;;;;;;;8.90;7.80;;;;;;;17.23;82.28;100699.40;108869;278;39358;-72
2023/09/30 07:03:09;;;;;;;13.40;8.30;;;;;;;17.23;82.55;100700.59;108905;278;39007;-71
2023/09/30 07:05:44;;;;;;;;;;;;;;;17.24;82.58;100705.66;108936;278;39268;-71
2023/09/30 07:08:21;;;;;;;9.80;8.70;;;;;;;17.23;83.12;100707.30;108917;278;38562;-74
2023/09/30 07:10:57;;;;;;;9.90;8.20;;;;;;;17.22;83.01;100707.05;108960;278;38325;-72
2023/09/30 07:13:31;;;;;;;9.80;8.30;;;;;;;17.22;83.10;100709.53;108912;278;38436;-72
2023/09/30 07:16:06;;;;;;;9.50;8.20;;;;;;;17.24;83.47;100710.44;108963;278;39350;-74
2023/09/30 07:18:43;;;;;;;9.90;8.30;;;;;;;17.28;83.36;100713.17;108988;278;38146;-72
2023/09/30 07:21:31;;;;;;;12.40;9.10;;;;;;;17.31;83.55;100713.04;108958;278;38492;-71
2023/09/30 07:24:20;;;;;;;10.50;9.30;;;;;;;17.34;83.68;100708.10;108918;278;38873;-74
2023/09/30 07:27:01;;;;;;;11.00;9.10;;;;;;;17.33;83.61;100711.33;109021;278;38164;-72
2023/09/30 07:29:35;;;;;;;11.50;9.20;;;;;;;17.34;83.80;100718.13;108908;278;38278;-71
2023/09/30 07:32:11;;;;;;;13.40;9.20;;;;;;;17.37;84.22;100722.54;108923;278;38138;-74
2023/09/30 07:34:45;;;;;;;10.60;9.20;;;;;;;17.42;84.38;100722.20;108896;278;38744;-73
2023/09/30 07:37:22;;;;;;;12.40;10.50;;;;;;;17.46;84.78;100717.95;108896;278;38788;-71
2023/09/30 07:40:21;;;;;;;13.00;10.00;;;;;;;17.47;84.90;100720.86;108928;278;38462;-72
2023/09/30 07:43:10;;;;;;;11.50;9.50;;;;;;;17.49;85.34;100721.23;108997;277;38713;-73
2023/09/30 07:45:50;;;;;;;9.70;8.70;;;;;;;17.59;85.68;100719.95;109051;276;38282;-72
2023/09/30 07:48:30;;;;;;;10.70;9.40;;;;;;;17.66;86.08;100721.78;108960;277;39392;-73
2023/09/30 07:51:13;;;;;;;12.70;10.60;;;;;;;17.76;86.39;100716.98;109051;277;38488;-71
2023/09/30 07:53:51;;;;;;;11.60;10.50;;;;;;;17.87;86.52;100714.52;108964;277;38153;-71
2023/09/30 07:56:27;;;;;;;10.80;9.50;;;;;;;17.98;86.89;100714.15;108960;276;39390;-71
2023/09/30 07:59:02;;;;;;;10.50;9.40;;;;;;;18.12;86.93;100712.24;108990;276;38484;-71
2023/09/30 08:01:38;;;;;;;12.10;10.20;;;;;;;18.29;87.57;100716.63;109017;277;38700;-72
2023/09/30 08:04:12;;;;;;;12.00;10.80;;;;;;;18.42;87.31;100716.63;109019;277;38291;-72
2023/09/30 08:06:50;;;;;;;13.50;10.50;;;;;;;18.52;87.04;100721.80;109015;277;38664;-73
2023/09/30 08:09:33;;;;;;;11.10;9.90;;;;;;;18.62;86.93;100722.38;109030;277;38526;-74
2023/09/30 08:12:12;;;;;;;11.50;10.40;;;;;;;18.72;86.34;100721.74;108986;277;38160;-72
2023/09/30 08:14:51;;;;;;;11.50;10.30;;;;;;;18.79;86.32;100725.92;108981;277;39652;-72
2023/09/30 08:17:29;;;;;;;14.50;11.60;;;;;;;18.81;86.00;100725.20;108955;277;38472;-71
2023/09/30 08:20:14;;;;;;;13.20;10.80;;;;;;;18.83;85.81;100726.36;108968;277;38546;-72
2023/09/30 08:22:48;;;;;;;13.10;10.90;;;;;;;18.82;85.59;100727.46;108907;276;39512;-72
2023/09/30 08:25:32;;;;;;;14.80;11.40;;;;;;;18.82;85.45;100726.25;108917;277;38681;-72
2023/09/30 08:28:09;;;;;;;12.30;11.10;;;;;;;18.88;85.65;100728.88;108927;276;38413;-72
2023/09/30 08:30:46;;;;;;;13.00;11.50;;;;;;;18.92;85.69;100728.92;109016;276;38302;-72
2023/09/30 08:33:20;;;;;;;12.00;10.80;;;;;;;18.96;85.91;100726.00;108957;277;38154;-72
2023/09/30 08:35:56;;;;;;;14.00;10.90;;;;;;;19.01;85.77;100723.70;108998;277;39514;-75
2023/09/30 08:38:34;;;;;;;14.80;11.40;;;;;;;19.07;85.86;100725.25;109014;277;38282;-73
2023/09/30 08:41:28;;;;;;;13.10;11.70;;;;;;;19.11;85.59;100725.34;109014;276;38615;-72
2023/09/30 08:44:09;;;;;;;13.80;12.50;;;;;;;19.11;85.35;100730.80;108942;277;39490;-74
2023/09/30 08:46:51;;;;;;;13.50;12.10;;;;;;;19.12;85.12;100728.33;108955;277;38309;-72
2023/09/30 08:49:27;;;;;;;15.70;11.50;;;;;;;19.09;84.94;100728.29;108991;277;39041;-73
2023/09/30 08:52:04;;;;;;;13.80;12.30;;;;;;;19.08;85.01;100731.89;109006;277;39059;-72
2023/09/30 08:54:42;;;;;;;14.40;12.90;;;;;;;19.06;84.91;100735.39;109048;276;38274;-74
2023/09/30 08:57:18;;;;;;;16.50;13.60;;;;;;;19.01;84.78;100741.89;109065;277;38185;-72
2023/09/30 08:59:53;;;;;;;15.20;12.60;;;;;;;18.96;84.77;100748.98;108948;277;39184;-72
2023/09/30 09:02:29;;;;;;;15.90;12.00;;;;;;;18.92;84.80;100752.07;109000;276;38749;-75
2023/09/30 09:05:08;;;;;;;14.50;12.10;;;;;;;18.90;84.98;100749.73;108996;277;38432;-74
2023/09/30 09:07:42;;;;;;;15.20;12.70;;;;;;;18.92;85.15;100752.65;108977;277;38775;-72
2023/09/30 09:10:17;;;;;;;14.30;12.90;;;;;;;18.89;85.10;100758.48;108989;277;38477;-72
2023/09/30 09:13:04;;;;;;;14.70;13.20;;;;;;;18.85;85.26;100759.09;108983;277;39643;-71
2023/09/30 09:15:38;;;;;;;14.60;12.60;;;;;;;18.82;85.43;100762.64;108997;277;38227;-72
2023/09/30 09:18:14;;;;;;;13.30;11.90;;;;;;;18.82;85.68;100765.66;108927;277;38587;-72
2023/09/30 09:20:48;;;;;;;13.60;12.20;;;;;;;18.84;85.64;100762.57;108978;277;38187;-74
2023/09/30 09:23:22;;;;;;;16.60;13.50;;;;;;;18.82;85.55;100764.05;108969;277;38317;-72
2023/09/30 09:26:00;;;;;;;15.70;13.40;;;;;;;18.84;85.87;100762.33;109008;277;38459;-74
2023/09/30 09:28:42;;;;;;;14.60;12.20;;;;;;;18.83;85.78;100767.34;108956;277;39453;-74
2023/09/30 09:31:28;;;;;;;12.70;11.30;;;;;;;18.82;85.73;100766.71;108898;277;174913;-72
2023/09/30 09:34:06;;;;;;;13.50;12.10;;;;;;;18.81;85.81;100765.02;109016;277;38479;-72
2023/09/30 09:36:45;;;;;;;13.60;12.30;;;;;;;18.80;85.84;100765.77;108874;276;189343;-72
2023/09/30 09:39:21;;;;;;;14.30;12.80;;;;;;;18.80;85.98;100772.11;108981;277;39398;-72
2023/09/30 09:41:57;;;;;;;16.10;12.10;;;;;;;18.79;86.31;100776.39;109037;276;38552;-72
2023/09/30 09:44:33;;;;;;;12.90;11.60;;;;;;;18.78;86.12;100780.60;109008;276;38433;-72
2023/09/30 09:47:07;;;;;;;14.30;12.00;;;;;;;18.77;86.39;100783.80;109031;277;38584;-72
2023/09/30 09:49:43;;;;;;;14.00;12.60;;;;;;;18.78;86.44;100786.44;108987;272;38238;-74
2023/09/30 09:52:18;;;;;;;15.10;12.50;;;;;;;18.78;86.55;100788.00;108976;277;38474;-72
2023/09/30 09:54:55;;;;;;;16.30;13.00;;;;;;;18.77;86.70;100790.39;108984;277;38604;-72
2023/09/30 09:57:30;;;;;;;14.30;12.20;;;;;;;18.75;86.89;100793.86;108933;276;40057;-72
2023/09/30 10:00:13;;;;;;;13.80;12.40;;;;;;;18.76;87.08;100796.80;108974;276;38864;-72
2023/09/30 10:02:48;;;;;;;15.20;12.70;;;;;;;18.76;86.84;100795.59;108850;277;174918;-73
2023/09/30 10:05:23;;;;;;;15.00;13.40;;;;;;;18.73;87.12;100798.95;108937;277;38269;-72
2023/09/30 10:08:01;;;;;;;13.90;11.80;;;;;;;18.72;87.36;100799.69;108926;277;38543;-72
2023/09/30 10:10:42;;;;;;;13.20;11.80;;;;;;;18.70;87.54;100806.38;109010;276;39698;-75
2023/09/30 10:13:56;;;;;;;15.40;12.30;;;;;;;18.70;87.70;100813.83;108983;276;39382;-72
2023/09/30 10:16:58;;;;;;;14.90;12.00;;;;;;;18.71;88.20;100821.68;109016;276;38156;-72
2023/09/30 10:19:33;;;;;;;13.30;11.90;;;;;;;18.68;87.98;100830.52;108970;277;38937;-72
2023/09/30 10:22:30;;;;;;;14.20;11.70;;;;;;;18.64;88.06;100835.70;109054;276;38146;-72
2023/09/30 10:25:41;;;;;;;10.60;9.10;;;;;;;18.64;88.41;100837.52;108963;276;38268;-72
2023/09/30 10:28:44;;;;;;;7.10;5.80;;;;;;;18.57;88.26;100842.50;109131;277;39622;-73
2023/09/30 10:31:26;;;;;;;6.30;4.60;;;;;;;18.53;87.68;100850.34;108982;277;40739;-75
2023/09/30 10:34:26;;;;;;;6.70;5.60;;;;;;;18.46;87.57;100855.21;109044;277;39794;-73
2023/09/30 10:37:00;;;;;;;9.90;5.00;;;;;;;18.41;87.82;100860.16;109015;277;39007;-72
2023/09/30 10:39:59;;;;;;;5.60;4.10;;;;;;;18.35;87.59;100874.33;108977;276;38537;-72
2023/09/30 10:42:55;;;;;;;5.40;3.20;;;;;;;18.30;87.51;100881.19;108958;276;39588;-74
2023/09/30 10:45:50;;;;;;;5.60;2.90;;;;;;;18.22;87.06;100885.89;108951;276;39041;-73
2023/09/30 10:48:48;;;;;;;4.90;2.80;;;;;;;18.16;87.20;100884.17;109028;276;38792;-72
2023/09/30 10:51:25;;;;;;;3.60;2.40;;;;;;;18.10;87.09;100887.50;108929;277;39878;-73
2023/09/30 10:54:00;;;;;;;3.50;2.50;;;;;;;18.08;87.27;100891.35;108954;277;39360;-76
2023/09/30 10:56:37;;;;;;;4.70;2.00;;;;;;;18.11;87.59;100893.29;108427;277;754115;-74
2023/09/30 10:59:11;;;;;;;3.40;1.80;;;;;;;18.17;87.63;100898.20;109011;276;39186;-74
2023/09/30 11:01:48;;;;;;;3.20;2.00;;;;;;;18.18;86.78;100905.91;108962;277;38741;-71
2023/09/30 11:04:23;;;;;;;3.30;2.10;;;;;;;18.15;86.48;100912.48;108983;276;39889;-75
2023/09/30 11:06:57;;;;;;;3.10;1.70;;;;;;;18.11;86.23;100917.10;109041;276;38168;-74
2023/09/30 11:09:40;;;;;;;2.80;1.80;;;;;;;18.06;86.31;100924.48;109017;276;38219;-72
2023/09/30 11:12:21;;;;;;;2.40;2.00;;;;;;;18.00;85.96;100925.52;109038;277;38351;-71
2023/09/30 11:15:09;;;;;;;5.40;2.10;;;;;;;17.97;85.62;100931.58;109049;276;39596;-73
2023/09/30 11:17:49;;;;;;;4.80;2.50;;;;;;;17.89;84.85;100931.83;109081;276;39708;-71
2023/09/30 11:20:24;;;;;;;4.60;2.20;;;;;;;17.84;85.21;100933.02;109015;276;37940;-71
2023/09/30 11:23:00;;;;;;;3.30;1.70;;;;;;;17.84;85.40;100933.53;109031;276;39142;-71
2023/09/30 11:25:41;;;;;;;7.40;2.20;;;;;;;17.83;85.11;100935.40;108984;276;38745;-74
2023/09/30 11:28:21;;;;;;;6.20;2.80;;;;;;;17.82;85.47;100935.41;108935;276;39450;-73
2023/09/30 11:31:06;;;;;;;4.70;2.40;;;;;;;17.87;85.14;100933.04;108978;276;38591;-71
2023/09/30 11:33:52;;;;;;;5.30;2.30;;;;;;;17.93;85.91;100929.45;108335;276;895833;-72
2023/09/30 11:36:27;;;;;;;4.40;1.80;;;;;;;18.04;86.15;100927.92;108971;277;38791;-72
2023/09/30 11:39:09;;;;;;;4.90;2.00;;;;;;;18.19;86.48;100927.23;108945;276;38491;-70
2023/09/30 11:41:43;;;;;;;4.20;2.10;;;;;;;18.31;86.40;100938.13;108948;276;38239;-71
2023/09/30 11:44:17;;;;;;;5.20;2.20;;;;;;;18.38;85.83;100936.51;109010;277;39326;-71
2023/09/30 11:46:59;;;;;;;5.30;2.20;;;;;;;18.43;85.34;100939.55;108992;277;39621;-72
2023/09/30 11:49:38;;;;;;;5.80;1.90;;;;;;;18.42;84.77;100943.48;108967;277;39414;-70
2023/09/30 11:52:15;;;;;;;7.40;2.40;;;;;;;18.39;84.25;100941.38;108994;277;38273;-72
2023/09/30 11:54:50;;;;;;;5.20;2.10;;;;;;;18.34;83.90;100941.48;108973;277;38148;-71
2023/09/30 11:57:25;;;;;;;4.80;1.90;;;;;;;18.36;83.94;100933.58;108978;277;38835;-72
2023/09/30 12:00:02;;;;;;;5.40;2.60;;;;;;;18.43;84.35;100929.27;108977;277;38625;-72
2023/09/30 12:02:41;;;;;;;5.80;2.20;;;;;;;18.50;83.79;100922.47;109014;277;40371;-71
2023/09/30 12:05:16;;;;;;;8.30;3.00;;;;;;;18.57;83.88;100920.63;108990;277;39756;-73
2023/09/30 12:07:54;;;;;;;7.00;2.20;;;;;;;18.70;83.35;100923.20;108978;277;38687;-72
2023/09/30 12:10:30;;;;;;;3.90;2.30;;;;;;;18.81;82.71;100920.53;109009;277;38447;-72